Time;durP1;ratioP1;P1;durP2;ratioP2;P2;SDS_P1;SDS_P2;PMS_P1;PMS_P2;Temp;Humidity;BMP_temperature;BMP_pressure;BME280_temperature;BME280_humidity;BME280_pressure;Samples;Min_cycle;Max_cycle;Signal;HPM_P1;HPM_P2
2022/01/20 00:00:19;;;;;;;5.72;1.20;;;10.10;69.50;;;;;;6158180;23;20311;-75
2022/01/20 00:02:46;;;;;;;6.25;1.30;;;10.10;69.50;;;;;;6133370;23;20454;-77
2022/01/20 00:27:05;;;;;;;6.85;1.17;;;10.10;69.40;;;;;;6157511;23;20089;-75
2022/01/20 00:29:44;;;;;;;6.93;1.27;;;10.10;69.30;;;;;;6157691;23;20021;-76
2022/01/20 00:32:12;;;;;;;3.50;0.82;;;10.10;69.40;;;;;;6157783;23;20424;-75
2022/01/20 00:37:20;;;;;;;3.47;1.00;;;10.10;69.30;;;;;;6157201;23;20021;-75
2022/01/20 00:39:46;;;;;;;3.88;0.80;;;10.10;69.30;;;;;;6158104;23;20035;-76
2022/01/20 00:42:12;;;;;;;4.93;1.10;;;10.10;69.20;;;;;;6156854;23;20010;-76
2022/01/20 00:44:38;;;;;;;4.30;0.90;;;10.10;69.20;;;;;;6157253;23;20017;-75
2022/01/20 00:47:04;;;;;;;6.03;0.95;;;10.10;69.10;;;;;;6158187;23;20053;-77
2022/01/20 00:49:29;;;;;;;4.90;1.92;;;10.10;69.10;;;;;;6157205;23;20033;-77
2022/01/20 00:51:55;;;;;;;4.32;0.95;;;10.10;69.20;;;;;;6131961;23;20025;-75
2022/01/20 00:54:21;;;;;;;3.17;1.10;;;10.10;69.10;;;;;;6156996;23;20025;-76
2022/01/20 00:56:47;;;;;;;6.15;1.05;;;10.10;69.10;;;;;;6157087;23;20028;-76
2022/01/20 00:59:13;;;;;;;4.40;0.90;;;10.10;69.10;;;;;;6158167;23;20024;-75
2022/01/20 01:01:39;;;;;;;7.47;1.40;;;10.10;69.10;;;;;;6157169;23;20331;-74
2022/01/20 01:04:05;;;;;;;4.82;0.82;;;10.10;69.10;;;;;;6158859;23;20160;-76
2022/01/20 01:09:14;;;;;;;6.10;1.13;;;10.10;69.10;;;;;;6156599;23;20021;-75
2022/01/20 01:11:43;;;;;;;3.70;1.00;;;10.10;69.00;;;;;;6158471;23;20036;-75
2022/01/20 01:14:09;;;;;;;5.43;0.93;;;10.10;69.10;;;;;;6158132;23;20018;-76
2022/01/20 01:20:06;;;;;;;4.53;1.00;;;10.10;69.20;;;;;;6157381;23;20056;-77
2022/01/20 01:24:35;;;;;;;5.70;1.00;;;10.10;69.10;;;;;;6157031;23;20021;-77
2022/01/20 01:27:01;;;;;;;5.13;1.08;;;10.10;69.10;;;;;;6157080;23;20017;-77
2022/01/20 01:29:58;;;;;;;4.22;1.00;;;10.10;69.20;;;;;;6158012;23;20009;-75
2022/01/20 01:32:15;;;;;;;3.20;0.90;;;10.10;69.10;;;;;;6155038;23;20017;-75
2022/01/20 01:34:47;;;;;;;5.07;1.30;;;10.10;69.10;;;;;;6158720;23;20348;-75
2022/01/20 01:39:57;;;;;;;3.80;1.00;;;10.10;69.00;;;;;;6157697;23;20323;-75
2022/01/20 01:42:30;;;;;;;3.72;0.80;;;10.10;69.10;;;;;;6158917;23;20068;-75
2022/01/20 01:44:57;;;;;;;3.22;0.77;;;10.10;69.00;;;;;;6156782;23;20081;-75
2022/01/20 01:47:23;;;;;;;3.60;0.68;;;10.10;69.00;;;;;;6156406;23;20017;-76
2022/01/20 01:49:49;;;;;;;4.43;0.95;;;10.10;69.00;;;;;;6132251;23;20033;-76
2022/01/20 01:52:14;;;;;;;3.38;0.95;;;10.20;69.00;;;;;;6156664;23;20076;-77
2022/01/20 01:54:40;;;;;;;3.28;0.77;;;10.10;68.90;;;;;;6158462;23;20088;-75
2022/01/20 01:57:09;;;;;;;4.30;0.80;;;10.10;69.00;;;;;;6158921;23;20304;-77
2022/01/20 01:59:34;;;;;;;4.47;1.05;;;10.10;68.90;;;;;;6156816;23;20056;-75
2022/01/20 02:02:00;;;;;;;3.33;0.85;;;10.20;68.90;;;;;;6158180;23;20029;-75
2022/01/20 02:04:26;;;;;;;5.35;1.23;;;10.10;68.80;;;;;;6132305;23;20419;-75
2022/01/20 02:09:37;;;;;;;4.47;0.82;;;10.20;68.90;;;;;;6157558;23;20029;-75
2022/01/20 02:20:25;;;;;;;3.00;0.73;;;10.20;68.80;;;;;;6157926;23;20427;-77
2022/01/20 02:22:51;;;;;;;7.30;1.25;;;10.20;68.90;;;;;;6156882;23;20028;-74
2022/01/20 02:25:22;;;;;;;5.78;0.95;;;10.10;68.80;;;;;;6157710;23;20025;-76
2022/01/20 02:27:48;;;;;;;6.95;1.02;;;10.20;68.80;;;;;;6156601;23;20084;-77
2022/01/20 02:30:20;;;;;;;5.72;0.98;;;10.10;68.70;;;;;;6159165;23;20443;-76
2022/01/20 02:33:00;;;;;;;5.63;1.52;;;10.20;68.90;;;;;;6158715;23;20017;-74
2022/01/20 02:35:29;;;;;;;4.35;1.02;;;10.10;68.60;;;;;;6134229;23;20092;-76
2022/01/20 02:38:10;;;;;;;4.28;1.23;;;10.10;69.20;;;;;;6158804;23;20097;-77
2022/01/20 02:45:53;;;;;;;5.60;0.90;;;10.10;68.60;;;;;;6158662;23;20025;-77
2022/01/20 02:48:19;;;;;;;5.95;1.42;;;10.20;68.50;;;;;;6159487;23;20014;-77
2022/01/20 02:50:44;;;;;;;7.43;1.10;;;10.10;68.40;;;;;;6159036;23;20017;-77
2022/01/20 02:53:10;;;;;;;7.00;1.42;;;10.20;68.40;;;;;;6158227;23;20365;-75
2022/01/20 02:55:36;;;;;;;7.00;1.20;;;10.10;68.30;;;;;;6158541;23;20092;-75
2022/01/20 02:58:03;;;;;;;5.38;1.10;;;10.10;68.30;;;;;;6159158;23;20296;-77
2022/01/20 03:00:29;;;;;;;6.10;1.33;;;10.20;68.30;;;;;;6158360;23;20084;-76
2022/01/20 03:02:56;;;;;;;6.85;1.77;;;10.20;68.20;;;;;;6159776;23;20106;-75
2022/01/20 03:05:22;;;;;;;4.68;1.33;;;10.20;68.30;;;;;;6158045;23;20014;-74
2022/01/20 03:07:48;;;;;;;5.45;1.35;;;10.20;68.20;;;;;;6158445;23;20021;-77
2022/01/20 03:10:14;;;;;;;5.90;1.58;;;10.10;67.90;;;;;;6159140;23;20033;-75
2022/01/20 03:12:40;;;;;;;6.57;1.50;;;10.10;68.00;;;;;;6133904;23;20045;-76
2022/01/20 03:15:06;;;;;;;4.78;1.05;;;10.10;68.10;;;;;;6134483;23;20047;-76
2022/01/20 03:17:32;;;;;;;7.13;1.75;;;10.10;68.00;;;;;;6133444;23;20018;-76
2022/01/20 03:19:59;;;;;;;7.18;2.00;;;10.10;68.50;;;;;;6158981;23;20311;-78
2022/01/20 03:22:25;;;;;;;7.35;1.52;;;10.10;68.00;;;;;;6158656;23;20292;-75
2022/01/20 03:24:51;;;;;;;5.43;1.13;;;10.10;68.00;;;;;;6159185;23;20029;-77
2022/01/20 03:27:17;;;;;;;6.97;1.45;;;10.10;67.90;;;;;;6133561;23;20013;-77
2022/01/20 03:29:43;;;;;;;5.90;1.73;;;10.10;68.00;;;;;;6158184;23;20018;-74
2022/01/20 03:32:08;;;;;;;8.68;1.52;;;10.10;68.00;;;;;;6133556;23;20115;-77
2022/01/20 03:34:34;;;;;;;7.93;1.55;;;10.10;67.90;;;;;;6134286;23;20035;-75
2022/01/20 03:37:03;;;;;;;9.45;1.95;;;10.10;67.90;;;;;;6133769;23;20024;-77
2022/01/20 03:39:30;;;;;;;6.57;1.60;;;10.10;67.80;;;;;;6157462;23;20403;-75
2022/01/20 03:41:56;;;;;;;7.80;1.65;;;10.10;67.80;;;;;;6157261;23;20052;-76
2022/01/20 03:44:21;;;;;;;7.43;2.00;;;10.10;67.80;;;;;;6157966;23;20033;-77
2022/01/20 03:46:47;;;;;;;8.07;2.15;;;10.10;67.60;;;;;;6157338;23;20025;-76
2022/01/20 03:49:27;;;;;;;6.28;2.08;;;10.10;67.80;;;;;;6158890;23;20051;-76
2022/01/20 03:51:54;;;;;;;7.90;2.05;;;10.10;67.70;;;;;;6159337;23;20080;-75
2022/01/20 03:54:19;;;;;;;6.65;2.17;;;10.10;67.60;;;;;;6159713;23;20025;-75
2022/01/20 03:56:45;;;;;;;7.25;1.58;;;10.10;67.60;;;;;;6159042;23;20106;-75
2022/01/20 03:59:11;;;;;;;11.32;2.08;;;10.10;67.60;;;;;;6159316;23;20040;-76
2022/01/20 04:01:37;;;;;;;10.70;2.42;;;10.10;67.60;;;;;;6158764;23;20021;-75
2022/01/20 04:04:02;;;;;;;6.40;1.95;;;10.10;67.50;;;;;;6157284;23;20131;-77
2022/01/20 04:06:28;;;;;;;8.60;1.67;;;10.10;67.60;;;;;;6157121;23;20387;-76
2022/01/20 04:08:54;;;;;;;7.85;2.00;;;10.10;67.50;;;;;;6158635;23;20096;-75
2022/01/20 04:11:26;;;;;;;10.57;2.10;;;10.10;68.10;;;;;;6157980;23;20030;-77
2022/01/20 04:13:52;;;;;;;10.18;2.10;;;10.10;67.50;;;;;;6132547;23;20022;-76
2022/01/20 04:16:39;;;;;;;6.80;1.88;;;10.10;67.60;;;;;;6157738;23;20431;-75
2022/01/20 04:19:08;;;;;;;6.22;1.30;;;10.10;67.50;;;;;;6158047;23;20427;-77
2022/01/20 04:21:35;;;;;;;10.48;1.77;;;10.10;68.10;;;;;;6133904;23;20028;-76
2022/01/20 04:24:03;;;;;;;5.90;1.52;;;10.10;67.50;;;;;;6157075;23;20021;-76
2022/01/20 04:26:29;;;;;;;7.97;1.45;;;10.00;67.50;;;;;;6157088;23;20017;-75
2022/01/20 04:28:56;;;;;;;8.73;1.42;;;10.00;67.30;;;;;;6157196;23;20026;-75
2022/01/20 04:31:28;;;;;;;7.30;1.60;;;10.10;67.30;;;;;;6158224;23;20017;-75
2022/01/20 04:33:56;;;;;;;8.05;1.85;;;10.10;67.40;;;;;;6156992;23;20017;-75
2022/01/20 04:36:23;;;;;;;7.50;1.48;;;10.10;67.40;;;;;;6157772;23;20041;-75
2022/01/20 04:38:49;;;;;;;8.48;2.10;;;10.10;67.40;;;;;;6132719;23;20061;-75
2022/01/20 04:41:15;;;;;;;7.15;1.90;;;10.10;67.40;;;;;;6157170;23;20152;-77
2022/01/20 04:43:41;;;;;;;7.47;1.58;;;10.10;67.30;;;;;;6157681;23;20064;-77
2022/01/20 04:46:32;;;;;;;7.32;1.83;;;10.00;67.30;;;;;;6157649;23;20351;-75
2022/01/20 04:57:15;;;;;;;6.95;1.75;;;10.00;67.40;;;;;;6156632;23;20026;-74
2022/01/20 04:59:41;;;;;;;6.55;1.80;;;10.00;67.20;;;;;;6156621;23;20081;-77
2022/01/20 05:02:07;;;;;;;5.68;1.30;;;10.00;67.40;;;;;;6132547;23;20403;-75
2022/01/20 05:04:34;;;;;;;7.47;1.45;;;10.00;67.40;;;;;;6157426;23;20022;-77
2022/01/20 05:07:00;;;;;;;6.97;1.65;;;10.00;67.90;;;;;;6156607;23;20017;-75
2022/01/20 05:09:26;;;;;;;9.45;2.20;;;10.00;67.40;;;;;;6156876;23;20029;-76
2022/01/20 05:12:10;;;;;;;5.63;1.55;;;10.00;67.90;;;;;;6158189;23;20108;-75
2022/01/20 05:14:36;;;;;;;9.98;1.80;;;10.00;67.20;;;;;;6156950;23;20399;-77
2022/01/20 05:17:02;;;;;;;7.00;1.90;;;10.00;67.20;;;;;;6157301;23;20297;-76
2022/01/20 05:19:30;;;;;;;8.45;1.55;;;10.00;67.10;;;;;;6132362;23;20060;-78
2022/01/20 05:21:56;;;;;;;5.75;1.17;;;10.00;67.30;;;;;;6157255;23;20407;-76
2022/01/20 05:24:22;;;;;;;6.45;1.75;;;10.00;67.30;;;;;;6156904;23;20410;-77
2022/01/20 05:26:50;;;;;;;6.20;1.23;;;10.00;67.30;;;;;;6157208;23;20109;-76
2022/01/20 05:29:17;;;;;;;6.78;1.83;;;9.90;67.20;;;;;;6156898;23;20021;-75
2022/01/20 05:31:42;;;;;;;6.97;1.73;;;10.00;67.30;;;;;;6157638;23;20028;-75
2022/01/20 05:34:08;;;;;;;10.23;1.90;;;10.00;67.30;;;;;;6157927;23;20018;-75
2022/01/20 05:36:34;;;;;;;6.07;1.23;;;10.00;67.40;;;;;;6158344;23;20021;-75
2022/01/20 05:39:00;;;;;;;7.72;1.77;;;10.00;67.20;;;;;;6156352;23;20013;-75
2022/01/20 05:41:26;;;;;;;5.70;1.88;;;10.00;67.10;;;;;;6133209;23;20009;-75
2022/01/20 05:43:51;;;;;;;7.15;1.65;;;10.00;67.30;;;;;;6157797;23;20095;-74
2022/01/20 05:46:22;;;;;;;5.03;1.55;;;10.00;67.10;;;;;;6158964;23;20061;-76
2022/01/20 05:48:48;;;;;;;5.40;1.40;;;10.00;67.20;;;;;;6158777;23;20026;-77
2022/01/20 05:51:15;;;;;;;5.03;1.50;;;10.00;67.10;;;;;;6158417;23;20316;-75
2022/01/20 05:53:41;;;;;;;7.75;1.60;;;10.00;67.10;;;;;;6157055;23;20013;-75
2022/01/20 05:56:07;;;;;;;7.65;1.27;;;10.00;67.10;;;;;;6157913;23;20315;-75
2022/01/20 05:58:36;;;;;;;5.45;1.60;;;10.00;67.10;;;;;;6156214;23;20032;-75
2022/01/20 06:01:05;;;;;;;7.22;1.27;;;9.90;67.10;;;;;;6157849;23;20108;-75
2022/01/20 06:03:36;;;;;;;5.85;1.40;;;9.90;67.20;;;;;;6158882;23;20013;-76
2022/01/20 06:06:04;;;;;;;5.70;1.77;;;9.90;67.10;;;;;;6158212;23;20017;-77
2022/01/20 06:08:30;;;;;;;5.47;1.42;;;9.90;67.20;;;;;;6159027;23;20115;-77
2022/01/20 06:10:56;;;;;;;9.00;2.15;;;10.00;67.10;;;;;;6159586;23;20320;-75
2022/01/20 06:13:21;;;;;;;4.80;1.48;;;10.00;67.00;;;;;;6159354;23;20017;-74
2022/01/20 06:15:47;;;;;;;7.22;1.83;;;10.00;67.10;;;;;;6158568;23;20017;-75
2022/01/20 06:18:13;;;;;;;6.90;1.67;;;10.00;67.10;;;;;;6160048;23;20026;-76
2022/01/20 06:20:40;;;;;;;4.97;1.25;;;10.00;67.10;;;;;;6158193;23;20021;-76
2022/01/20 06:23:08;;;;;;;6.30;1.10;;;10.00;66.80;;;;;;6160057;23;20021;-76
2022/01/20 06:25:35;;;;;;;8.32;1.65;;;10.00;67.00;;;;;;6134155;23;20426;-75
2022/01/20 06:28:02;;;;;;;5.68;1.55;;;10.00;66.90;;;;;;6159769;23;20026;-75
2022/01/20 06:30:30;;;;;;;5.72;1.77;;;10.00;67.20;;;;;;6158125;23;20026;-77
2022/01/20 06:32:55;;;;;;;7.63;1.60;;;9.90;66.50;;;;;;6160055;23;20060;-76
2022/01/20 06:35:21;;;;;;;7.38;1.35;;;9.90;66.50;;;;;;6134273;23;20422;-75
2022/01/20 06:37:47;;;;;;;7.82;1.40;;;9.90;66.70;;;;;;6158461;23;20109;-77
2022/01/20 06:40:13;;;;;;;8.82;1.60;;;9.90;66.50;;;;;;6157903;23;20017;-76
2022/01/20 06:42:39;;;;;;;7.28;1.17;;;9.90;66.50;;;;;;6157951;23;20024;-76
2022/01/20 06:45:08;;;;;;;5.50;1.42;;;10.00;66.60;;;;;;6159559;23;20343;-77
2022/01/20 06:47:33;;;;;;;5.72;1.98;;;10.00;66.60;;;;;;6158881;23;20118;-75
2022/01/20 06:50:00;;;;;;;9.02;2.20;;;9.90;66.50;;;;;;6158113;23;20305;-77
2022/01/20 06:52:27;;;;;;;5.93;1.40;;;10.00;66.60;;;;;;6133794;23;20092;-76
2022/01/20 06:54:53;;;;;;;5.68;1.30;;;9.90;66.50;;;;;;6158926;23;20064;-76
2022/01/20 06:57:19;;;;;;;7.28;2.15;;;9.90;66.60;;;;;;6157951;23;20021;-76
2022/01/20 06:59:45;;;;;;;4.75;1.30;;;9.90;66.60;;;;;;6159794;23;20032;-77
2022/01/20 07:02:11;;;;;;;6.07;2.03;;;9.90;66.60;;;;;;6158299;23;20315;-76
2022/01/20 07:04:38;;;;;;;6.63;1.27;;;9.90;66.60;;;;;;6159273;23;20028;-75
2022/01/20 07:07:05;;;;;;;3.60;1.10;;;9.90;66.50;;;;;;6157733;23;20024;-77
2022/01/20 07:09:32;;;;;;;7.75;2.08;;;9.90;66.60;;;;;;6158056;23;20028;-77
2022/01/20 07:11:59;;;;;;;6.10;1.35;;;9.90;66.80;;;;;;6158107;23;20018;-76
2022/01/20 07:14:25;;;;;;;5.25;1.38;;;9.90;66.60;;;;;;6158284;23;20017;-75
2022/01/20 07:16:50;;;;;;;7.45;1.40;;;9.90;66.70;;;;;;6157542;23;20017;-75
2022/01/20 07:19:17;;;;;;;6.05;1.33;;;9.90;66.70;;;;;;6157547;23;20059;-76
2022/01/20 07:21:43;;;;;;;5.28;1.00;;;9.90;66.60;;;;;;6159041;23;20273;-75
2022/01/20 07:24:09;;;;;;;5.63;1.77;;;9.90;66.50;;;;;;6133359;23;20021;-76
2022/01/20 07:26:35;;;;;;;4.53;1.15;;;9.90;66.50;;;;;;6157619;23;20044;-74
2022/01/20 07:29:00;;;;;;;6.70;1.42;;;9.90;66.60;;;;;;6157906;23;20051;-77
2022/01/20 07:31:26;;;;;;;8.10;1.98;;;9.80;66.40;;;;;;6133800;23;20022;-75
2022/01/20 07:33:52;;;;;;;4.53;1.20;;;9.90;66.50;;;;;;6157507;23;20017;-76
2022/01/20 07:36:18;;;;;;;5.60;1.30;;;9.90;66.50;;;;;;6133142;23;20037;-76
2022/01/20 07:38:44;;;;;;;5.13;1.30;;;9.90;66.60;;;;;;6159771;23;20014;-75
2022/01/20 07:41:10;;;;;;;6.60;1.40;;;9.90;66.40;;;;;;6157436;23;20420;-77
2022/01/20 07:43:37;;;;;;;6.47;1.77;;;9.90;66.40;;;;;;6158491;23;20021;-77
2022/01/20 07:46:02;;;;;;;8.45;1.42;;;9.90;66.50;;;;;;6158974;23;20031;-77
2022/01/20 07:48:28;;;;;;;7.60;1.55;;;9.90;66.20;;;;;;6159153;23;20506;-76
2022/01/20 07:50:54;;;;;;;5.50;1.35;;;9.90;66.40;;;;;;6159233;23;20290;-75
2022/01/20 07:53:19;;;;;;;6.57;1.30;;;9.90;66.40;;;;;;6158472;23;20100;-75
2022/01/20 07:55:45;;;;;;;4.93;1.48;;;9.90;66.30;;;;;;6158809;23;20017;-75
2022/01/20 07:58:11;;;;;;;7.68;1.60;;;9.90;66.50;;;;;;6159120;23;20018;-77
2022/01/20 08:00:37;;;;;;;5.93;1.52;;;9.90;66.30;;;;;;6158707;23;20021;-77
2022/01/20 08:03:02;;;;;;;7.32;1.60;;;9.90;66.40;;;;;;6159772;23;20032;-74
2022/01/20 08:05:28;;;;;;;5.38;1.35;;;9.90;66.20;;;;;;6158828;23;20040;-77
2022/01/20 08:07:54;;;;;;;5.50;1.27;;;9.90;66.20;;;;;;6157125;23;20049;-77
2022/01/20 08:10:20;;;;;;;7.97;2.05;;;9.90;66.10;;;;;;6159338;23;20037;-75
2022/01/20 08:12:45;;;;;;;6.05;1.52;;;9.90;66.20;;;;;;6158734;23;20462;-74
2022/01/20 08:15:12;;;;;;;3.28;0.98;;;9.90;66.30;;;;;;6157136;23;20028;-76
2022/01/20 08:17:42;;;;;;;6.53;1.80;;;9.90;66.30;;;;;;6158545;23;20363;-77
2022/01/20 08:20:09;;;;;;;5.10;1.30;;;9.90;66.30;;;;;;6158505;23;20022;-76
2022/01/20 08:22:35;;;;;;;8.45;1.30;;;9.90;66.10;;;;;;6157469;23;20044;-77
2022/01/20 08:25:06;;;;;;;8.02;1.70;;;9.80;66.10;;;;;;6158617;23;20025;-74
2022/01/20 08:27:32;;;;;;;5.80;1.70;;;9.90;66.30;;;;;;6157434;23;20017;-76
2022/01/20 08:29:58;;;;;;;8.40;1.73;;;9.90;66.70;;;;;;6159282;23;20040;-76
2022/01/20 08:32:23;;;;;;;7.05;1.77;;;9.90;66.20;;;;;;6158409;23;20368;-77
2022/01/20 08:34:49;;;;;;;7.10;1.65;;;9.90;66.10;;;;;;6157284;23;20017;-76
2022/01/20 08:37:15;;;;;;;6.95;1.73;;;9.90;66.00;;;;;;6158448;23;20018;-76
2022/01/20 08:39:47;;;;;;;4.30;1.27;;;9.90;65.90;;;;;;6157397;23;20036;-77
2022/01/20 08:42:13;;;;;;;10.57;2.00;;;9.90;66.10;;;;;;6158438;23;20028;-76
2022/01/20 08:44:39;;;;;;;5.78;2.00;;;9.90;66.10;;;;;;6157659;23;20021;-74
2022/01/20 08:47:14;;;;;;;6.75;1.83;;;9.90;66.20;;;;;;6158554;23;20277;-78
2022/01/20 08:49:40;;;;;;;5.95;1.75;;;9.90;66.10;;;;;;6157182;23;20021;-77
2022/01/20 08:52:05;;;;;;;5.75;1.15;;;9.90;66.00;;;;;;6157316;23;20029;-76
2022/01/20 08:54:32;;;;;;;6.10;1.30;;;9.90;66.00;;;;;;6158978;23;20036;-77
2022/01/20 08:56:58;;;;;;;5.63;1.88;;;9.90;66.10;;;;;;6157065;23;20420;-77
2022/01/20 08:59:26;;;;;;;6.45;1.55;;;9.90;66.30;;;;;;6158057;23;20010;-75
2022/01/20 09:01:52;;;;;;;7.30;1.98;;;9.90;66.20;;;;;;6156724;23;20423;-77
2022/01/20 09:04:17;;;;;;;7.57;1.45;;;9.90;66.10;;;;;;6107218;23;20029;-76
2022/01/20 09:06:43;;;;;;;5.30;1.42;;;9.90;66.10;;;;;;6157080;23;20097;-75
2022/01/20 09:09:09;;;;;;;7.85;1.27;;;9.90;66.10;;;;;;6157073;23;20021;-76
2022/01/20 09:11:38;;;;;;;6.15;1.67;;;9.90;66.20;;;;;;6157056;23;20022;-77
2022/01/20 09:16:49;;;;;;;8.13;1.63;;;9.90;66.10;;;;;;6158120;23;20073;-75
2022/01/20 09:19:16;;;;;;;6.20;1.73;;;9.90;66.20;;;;;;6157795;23;20021;-76
2022/01/20 09:21:44;;;;;;;6.47;1.33;;;9.90;66.10;;;;;;6157128;23;20075;-77
2022/01/20 09:24:09;;;;;;;4.15;1.00;;;10.00;66.00;;;;;;6158461;23;20021;-77
2022/01/20 09:26:35;;;;;;;4.85;1.10;;;9.90;65.90;;;;;;6156561;23;20032;-77
2022/01/20 09:29:01;;;;;;;5.60;1.48;;;9.90;65.90;;;;;;6156960;23;20097;-75
2022/01/20 09:31:30;;;;;;;6.72;1.55;;;9.90;66.00;;;;;;6157866;23;20033;-77
2022/01/20 09:33:56;;;;;;;5.00;1.15;;;9.90;65.80;;;;;;6157319;23;20100;-76
2022/01/20 09:36:23;;;;;;;6.78;1.38;;;9.90;65.70;;;;;;6156903;23;20419;-77
2022/01/20 09:38:49;;;;;;;9.55;1.90;;;9.90;65.90;;;;;;6156775;23;20092;-77
2022/01/20 09:41:15;;;;;;;6.50;1.73;;;9.90;65.80;;;;;;6156445;23;20021;-76
2022/01/20 09:43:41;;;;;;;7.63;1.30;;;9.90;65.90;;;;;;6156882;23;20084;-75
2022/01/20 09:46:07;;;;;;;3.97;1.30;;;9.90;66.00;;;;;;6131875;23;20017;-75
2022/01/20 09:48:33;;;;;;;8.02;1.25;;;9.90;65.80;;;;;;6157871;23;20032;-77
2022/01/20 09:51:00;;;;;;;5.53;1.17;;;9.90;65.90;;;;;;6156641;23;20017;-76
2022/01/20 09:53:27;;;;;;;5.95;1.65;;;9.90;65.80;;;;;;6157257;23;20412;-76
2022/01/20 09:55:54;;;;;;;9.55;1.63;;;9.90;65.90;;;;;;6156926;23;20438;-76
2022/01/20 09:58:19;;;;;;;5.05;1.23;;;9.90;65.90;;;;;;6132101;23;20014;-75
2022/01/20 10:00:47;;;;;;;5.13;1.05;;;9.90;65.90;;;;;;6156697;23;20395;-76
2022/01/20 10:03:15;;;;;;;6.13;1.10;;;9.90;66.00;;;;;;6158020;23;20424;-76
2022/01/20 10:05:53;;;;;;;5.35;1.55;;;9.90;66.00;;;;;;6132320;23;20025;-76
2022/01/20 10:08:27;;;;;;;6.45;1.50;;;9.90;66.00;;;;;;6156869;23;20033;-75
2022/01/20 10:11:05;;;;;;;8.00;1.48;;;9.90;66.00;;;;;;6156741;23;20022;-76
2022/01/20 10:13:36;;;;;;;5.25;1.90;;;9.90;66.00;;;;;;6133241;23;20068;-77
2022/01/20 10:16:08;;;;;;;6.75;1.27;;;9.90;66.10;;;;;;6156960;23;20025;-77
2022/01/20 10:18:45;;;;;;;5.57;1.50;;;9.90;65.90;;;;;;6156638;23;20350;-76
2022/01/20 10:21:11;;;;;;;4.38;1.02;;;9.90;66.00;;;;;;6156811;23;20089;-76
2022/01/20 10:23:40;;;;;;;7.25;1.23;;;9.90;66.00;;;;;;6156997;23;20025;-77
2022/01/20 10:26:12;;;;;;;5.43;1.58;;;9.90;66.10;;;;;;6156704;23;20017;-74
2022/01/20 10:28:59;;;;;;;5.85;1.33;;;9.90;66.80;;;;;;6157137;23;20096;-77
2022/01/20 10:31:52;;;;;;;5.15;1.60;;;9.90;65.90;;;;;;6157417;23;20433;-77
2022/01/20 10:34:20;;;;;;;6.95;1.70;;;9.80;66.10;;;;;;6156808;23;20013;-76
2022/01/20 10:36:52;;;;;;;7.35;1.70;;;9.90;66.30;;;;;;6156803;23;20101;-75
2022/01/20 10:39:22;;;;;;;8.52;1.65;;;9.80;66.20;;;;;;6156475;23;20053;-77
2022/01/20 10:41:58;;;;;;;6.18;1.25;;;9.80;66.30;;;;;;6157644;23;20087;-77
2022/01/20 10:44:23;;;;;;;6.75;1.58;;;9.80;66.30;;;;;;6156644;23;20048;-76
2022/01/20 10:46:52;;;;;;;6.65;1.52;;;9.80;66.20;;;;;;6158307;23;20054;-75
2022/01/20 10:49:20;;;;;;;6.38;1.83;;;9.80;66.90;;;;;;6157053;23;20427;-75
2022/01/20 10:52:01;;;;;;;7.50;1.38;;;9.80;66.40;;;;;;6133814;23;20025;-74
2022/01/20 10:54:35;;;;;;;9.82;2.05;;;9.80;66.20;;;;;;6159722;23;20046;-77
2022/01/20 10:57:02;;;;;;;7.60;1.83;;;9.80;66.30;;;;;;6158374;23;20017;-75
2022/01/20 10:59:28;;;;;;;6.95;1.52;;;9.90;66.30;;;;;;6158980;23;20100;-76
2022/01/20 11:02:03;;;;;;;8.00;1.92;;;9.90;66.30;;;;;;6160163;23;20063;-75
2022/01/20 11:04:30;;;;;;;6.95;1.45;;;9.90;66.10;;;;;;6158008;23;20036;-76
2022/01/20 11:06:58;;;;;;;5.53;1.75;;;9.90;66.10;;;;;;6159866;23;20281;-77
2022/01/20 11:09:26;;;;;;;5.43;1.60;;;9.90;66.10;;;;;;6159416;23;20090;-76
2022/01/20 11:11:52;;;;;;;7.75;1.92;;;9.90;66.60;;;;;;6159351;23;20029;-75
2022/01/20 11:14:18;;;;;;;5.68;1.52;;;9.90;66.10;;;;;;6157838;23;20096;-77
2022/01/20 11:16:44;;;;;;;7.20;1.58;;;9.90;65.80;;;;;;6159652;23;20083;-77
2022/01/20 11:19:18;;;;;;;4.45;1.38;;;9.90;66.00;;;;;;6158410;23;20025;-77
2022/01/20 11:21:45;;;;;;;5.90;1.75;;;9.80;65.90;;;;;;6159277;23;20025;-77
2022/01/20 11:24:23;;;;;;;10.40;2.17;;;9.80;66.00;;;;;;6158023;23;20065;-76
2022/01/20 11:26:51;;;;;;;3.50;1.30;;;9.80;66.00;;;;;;6159850;23;20017;-75
2022/01/20 11:29:17;;;;;;;6.90;1.83;;;9.90;66.10;;;;;;6159253;23;20024;-75
2022/01/20 11:31:43;;;;;;;8.25;1.48;;;9.90;66.20;;;;;;6159214;23;20025;-76
2022/01/20 11:34:17;;;;;;;6.30;1.52;;;9.90;66.20;;;;;;6158782;23;20033;-77
2022/01/20 11:36:43;;;;;;;7.05;1.83;;;9.90;66.10;;;;;;6159189;23;20029;-77
2022/01/20 11:39:10;;;;;;;5.47;1.27;;;9.90;66.10;;;;;;6158666;23;20463;-76
2022/01/20 11:41:47;;;;;;;6.45;2.05;;;9.90;66.10;;;;;;6157672;23;20021;-74
2022/01/20 11:44:18;;;;;;;6.55;1.60;;;9.90;65.90;;;;;;6157644;23;20087;-76
2022/01/20 11:46:47;;;;;;;6.38;1.15;;;9.80;65.90;;;;;;6159036;23;20085;-75
2022/01/20 11:49:18;;;;;;;6.50;1.50;;;9.80;66.00;;;;;;6157454;23;20029;-75
2022/01/20 11:51:48;;;;;;;5.00;1.65;;;9.80;66.10;;;;;;6132861;23;20032;-75
2022/01/20 11:54:23;;;;;;;9.45;1.65;;;9.80;65.90;;;;;;6159072;23;20088;-76
2022/01/20 11:56:50;;;;;;;5.85;1.60;;;9.90;66.00;;;;;;6158978;23;20025;-75
2022/01/20 11:59:16;;;;;;;6.15;1.27;;;9.90;66.70;;;;;;6158013;23;20304;-76
2022/01/20 12:01:53;;;;;;;6.18;1.58;;;9.80;66.00;;;;;;6158342;23;20097;-76
2022/01/20 12:04:37;;;;;;;7.97;1.35;;;9.80;65.90;;;;;;6158436;23;20064;-76
2022/01/20 12:07:05;;;;;;;7.03;1.38;;;9.80;66.00;;;;;;6158115;23;20366;-75
2022/01/20 12:09:36;;;;;;;4.78;1.40;;;9.80;66.20;;;;;;6159078;23;20017;-75
2022/01/20 12:12:26;;;;;;;8.50;1.42;;;9.80;66.30;;;;;;6157291;23;20017;-76
2022/01/20 12:14:52;;;;;;;5.85;1.73;;;9.90;66.00;;;;;;6139735;23;20025;-76
2022/01/20 12:17:19;;;;;;;7.10;1.27;;;9.80;66.80;;;;;;6158691;23;20116;-76
2022/01/20 12:19:54;;;;;;;7.93;1.95;;;9.80;66.20;;;;;;6158368;23;20018;-75
2022/01/20 12:22:20;;;;;;;5.70;1.48;;;9.80;66.20;;;;;;6158710;23;20017;-75
2022/01/20 12:24:54;;;;;;;6.47;2.00;;;9.80;66.20;;;;;;6157116;23;20018;-77
2022/01/20 12:27:23;;;;;;;5.43;1.38;;;9.90;66.80;;;;;;6157780;23;20072;-76
2022/01/20 12:29:50;;;;;;;7.50;1.48;;;9.90;66.20;;;;;;6157690;23;20032;-76
2022/01/20 12:32:20;;;;;;;8.73;1.05;;;9.80;66.20;;;;;;6158257;23;20028;-75
2022/01/20 12:35:00;;;;;;;7.97;1.95;;;9.90;66.30;;;;;;6159342;23;20265;-76
2022/01/20 12:37:39;;;;;;;3.83;1.20;;;9.90;65.90;;;;;;6159317;23;20104;-76
2022/01/20 12:40:16;;;;;;;7.93;1.63;;;9.90;66.30;;;;;;6158364;23;20021;-77
2022/01/20 12:42:42;;;;;;;4.30;1.00;;;9.80;66.20;;;;;;6157006;23;20017;-76
2022/01/20 12:47:52;;;;;;;6.22;1.88;;;9.80;66.20;;;;;;6158439;23;20025;-78
2022/01/20 12:50:18;;;;;;;3.58;1.00;;;9.80;66.20;;;;;;6157318;23;20412;-75
2022/01/20 12:52:48;;;;;;;5.53;1.10;;;9.90;66.30;;;;;;6157443;23;20076;-76
2022/01/20 12:55:14;;;;;;;8.65;1.52;;;9.90;66.30;;;;;;6159391;23;20017;-77
2022/01/20 12:57:41;;;;;;;5.13;1.23;;;9.90;66.90;;;;;;6158445;23;20028;-75
2022/01/20 13:00:08;;;;;;;5.78;1.17;;;9.90;66.20;;;;;;6157853;23;20470;-76
2022/01/20 13:02:34;;;;;;;5.05;1.30;;;9.80;66.20;;;;;;6156834;23;20048;-76
2022/01/20 13:05:02;;;;;;;4.05;0.95;;;9.90;66.20;;;;;;6158628;23;20017;-76
2022/01/20 13:07:30;;;;;;;4.20;1.33;;;9.90;66.20;;;;;;6157162;23;20021;-74
2022/01/20 13:10:05;;;;;;;5.65;1.38;;;9.90;66.20;;;;;;6157160;23;20021;-76
2022/01/20 13:12:40;;;;;;;6.07;1.38;;;9.90;66.20;;;;;;6158157;23;20025;-75
2022/01/20 13:15:18;;;;;;;3.63;1.40;;;9.90;66.00;;;;;;6158314;23;20022;-75
2022/01/20 13:17:45;;;;;;;4.78;1.48;;;9.90;65.90;;;;;;6158618;23;20025;-76
2022/01/20 13:20:16;;;;;;;6.72;1.55;;;9.90;66.10;;;;;;6132043;23;20029;-77
2022/01/20 13:22:54;;;;;;;6.40;1.20;;;9.90;66.10;;;;;;6158903;23;20020;-77
2022/01/20 13:25:24;;;;;;;5.43;1.10;;;9.90;66.00;;;;;;6157209;23;20021;-74
2022/01/20 13:28:05;;;;;;;4.97;1.00;;;9.80;66.00;;;;;;6156992;23;20018;-77
2022/01/20 13:30:36;;;;;;;5.25;1.25;;;9.90;66.10;;;;;;6157326;23;20091;-76
2022/01/20 13:33:06;;;;;;;5.43;1.20;;;9.90;66.20;;;;;;6158583;23;20029;-75
2022/01/20 13:35:43;;;;;;;5.32;1.15;;;9.90;66.10;;;;;;6157199;23;20105;-77
2022/01/20 13:38:10;;;;;;;5.82;1.30;;;9.90;66.10;;;;;;6157255;23;20045;-77
2022/01/20 13:40:37;;;;;;;4.03;1.05;;;9.90;66.10;;;;;;6157021;23;20072;-75
2022/01/20 13:46:06;;;;;;;5.28;1.10;;;9.90;66.10;;;;;;6158591;23;20415;-75
2022/01/20 13:48:33;;;;;;;5.97;1.35;;;9.80;66.20;;;;;;6157558;23;20454;-76
2022/01/20 13:51:02;;;;;;;3.15;0.75;;;9.80;66.30;;;;;;6157853;23;20323;-75
2022/01/20 13:53:30;;;;;;;5.18;1.50;;;9.90;66.40;;;;;;6158012;23;20048;-75
2022/01/20 13:55:58;;;;;;;5.43;1.10;;;9.90;66.40;;;;;;6157254;23;20466;-75
2022/01/20 13:58:30;;;;;;;3.33;1.25;;;9.80;66.30;;;;;;6156785;23;20013;-75
2022/01/20 14:00:58;;;;;;;5.47;1.00;;;9.90;66.40;;;;;;6157229;23;20029;-76
2022/01/20 14:03:24;;;;;;;4.97;1.10;;;9.90;66.30;;;;;;6157956;23;20299;-76
2022/01/20 14:05:55;;;;;;;3.95;0.90;;;9.80;66.30;;;;;;6156419;23;20021;-76